sensor_id;sensor_type;location;lat;lon;timestamp;pressure;altitude;pressure_sealevel;temperature;humidity
23016;BME280;11674;52.428;13.584;2023-10-19T00:01:16;100295.28;;;5.63;65.12
23016;BME280;11674;52.428;13.584;2023-10-19T00:06:23;100290.81;;;5.62;65.27
23016;BME280;11674;52.428;13.584;2023-10-19T00:11:51;100288.66;;;5.59;65.37
23016;BME280;11674;52.428;13.584;2023-10-19T00:17:01;100282.84;;;5.60;65.08
23016;BME280;11674;52.428;13.584;2023-10-19T00:22:11;100278.41;;;5.59;65.29
23016;BME280;11674;52.428;13.584;2023-10-19T00:27:19;100278.72;;;5.58;65.24
23016;BME280;11674;52.428;13.584;2023-10-19T00:32:32;100258.00;;;5.55;65.27
23016;BME280;11674;52.428;13.584;2023-10-19T00:37:46;100247.50;;;5.52;65.17
23016;BME280;11674;52.428;13.584;2023-10-19T00:42:55;100227.91;;;5.49;65.49
23016;BME280;11674;52.428;13.584;2023-10-19T00:48:06;100220.19;;;5.46;65.39
23016;BME280;11674;52.428;13.584;2023-10-19T00:53:16;100207.19;;;5.46;65.37
23016;BME280;11674;52.428;13.584;2023-10-19T00:58:27;100192.50;;;5.46;65.31
23016;BME280;11674;52.428;13.584;2023-10-19T01:03:39;100198.38;;;5.44;65.48
23016;BME280;11674;52.428;13.584;2023-10-19T01:08:49;100195.28;;;5.46;65.57
23016;BME280;11674;52.428;13.584;2023-10-19T01:14:00;100188.41;;;5.43;65.51
23016;BME280;11674;52.428;13.584;2023-10-19T01:19:25;100168.22;;;5.43;65.43
23016;BME280;11674;52.428;13.584;2023-10-19T01:24:39;100174.88;;;5.42;65.45
23016;BME280;11674;52.428;13.584;2023-10-19T01:29:49;100159.09;;;5.42;65.51
23016;BME280;11674;52.428;13.584;2023-10-19T01:35:03;100143.91;;;5.40;65.52
23016;BME280;11674;52.428;13.584;2023-10-19T01:40:11;100144.47;;;5.42;65.60
23016;BME280;11674;52.428;13.584;2023-10-19T01:45:23;100143.34;;;5.43;65.55
23016;BME280;11674;52.428;13.584;2023-10-19T01:50:30;100125.84;;;5.47;65.71
23016;BME280;11674;52.428;13.584;2023-10-19T01:55:38;100131.81;;;5.54;65.71
23016;BME280;11674;52.428;13.584;2023-10-19T02:00:47;100110.00;;;5.53;65.64
23016;BME280;11674;52.428;13.584;2023-10-19T02:06:01;100087.94;;;5.48;65.44
23016;BME280;11674;52.428;13.584;2023-10-19T02:11:11;100097.38;;;5.47;65.71
23016;BME280;11674;52.428;13.584;2023-10-19T02:16:22;100087.09;;;5.47;65.67
23016;BME280;11674;52.428;13.584;2023-10-19T02:21:34;100090.16;;;5.46;65.79
23016;BME280;11674;52.428;13.584;2023-10-19T02:26:50;100079.41;;;5.44;65.80
23016;BME280;11674;52.428;13.584;2023-10-19T02:32:02;100066.69;;;5.43;65.80
23016;BME280;11674;52.428;13.584;2023-10-19T02:37:14;100060.88;;;5.45;66.09
23016;BME280;11674;52.428;13.584;2023-10-19T02:42:31;100050.34;;;5.47;65.90
23016;BME280;11674;52.428;13.584;2023-10-19T02:47:38;100045.84;;;5.51;65.83
23016;BME280;11674;52.428;13.584;2023-10-19T02:52:47;100037.53;;;5.51;65.85
23016;BME280;11674;52.428;13.584;2023-10-19T02:57:54;100028.13;;;5.52;65.85
23016;BME280;11674;52.428;13.584;2023-10-19T03:03:01;100023.41;;;5.52;65.96
23016;BME280;11674;52.428;13.584;2023-10-19T03:08:16;100009.88;;;5.51;65.99
23016;BME280;11674;52.428;13.584;2023-10-19T03:13:26;100008.78;;;5.52;66.00
23016;BME280;11674;52.428;13.584;2023-10-19T03:18:35;100002.34;;;5.56;65.90
23016;BME280;11674;52.428;13.584;2023-10-19T03:23:45;99996.72;;;5.61;65.92
23016;BME280;11674;52.428;13.584;2023-10-19T03:28:55;99994.75;;;5.62;65.91
23016;BME280;11674;52.428;13.584;2023-10-19T03:34:07;99983.41;;;5.63;66.01
23016;BME280;11674;52.428;13.584;2023-10-19T03:39:14;99988.94;;;5.63;66.09
23016;BME280;11674;52.428;13.584;2023-10-19T03:44:21;99977.56;;;5.65;66.03
23016;BME280;11674;52.428;13.584;2023-10-19T03:49:30;99973.47;;;5.62;66.07
23016;BME280;11674;52.428;13.584;2023-10-19T03:54:37;99957.97;;;5.61;66.04
23016;BME280;11674;52.428;13.584;2023-10-19T03:59:47;99952.97;;;5.63;66.04
23016;BME280;11674;52.428;13.584;2023-10-19T04:04:55;99942.19;;;5.62;66.07
23016;BME280;11674;52.428;13.584;2023-10-19T04:10:01;99943.31;;;5.61;66.03
23016;BME280;11674;52.428;13.584;2023-10-19T04:15:11;99941.38;;;5.61;66.09
23016;BME280;11674;52.428;13.584;2023-10-19T04:20:20;99922.81;;;5.62;65.94
23016;BME280;11674;52.428;13.584;2023-10-19T04:25:30;99927.56;;;5.61;66.04
23016;BME280;11674;52.428;13.584;2023-10-19T04:30:40;99919.75;;;5.63;65.89
23016;BME280;11674;52.428;13.584;2023-10-19T04:35:56;99911.47;;;5.63;66.06
23016;BME280;11674;52.428;13.584;2023-10-19T04:41:11;99908.19;;;5.61;66.14
23016;BME280;11674;52.428;13.584;2023-10-19T04:46:22;99904.59;;;5.61;66.08
23016;BME280;11674;52.428;13.584;2023-10-19T04:51:34;99886.84;;;5.62;66.01
23016;BME280;11674;52.428;13.584;2023-10-19T04:56:44;99882.53;;;5.56;66.05
23016;BME280;11674;52.428;13.584;2023-10-19T05:01:51;99886.44;;;5.55;66.18
23016;BME280;11674;52.428;13.584;2023-10-19T05:06:58;99891.66;;;5.56;66.23
23016;BME280;11674;52.428;13.584;2023-10-19T05:12:08;99880.06;;;5.54;66.20
23016;BME280;11674;52.428;13.584;2023-10-19T05:17:19;99865.94;;;5.56;66.21
23016;BME280;11674;52.428;13.584;2023-10-19T05:22:34;99847.09;;;5.58;66.26
23016;BME280;11674;52.428;13.584;2023-10-19T05:27:45;99849.63;;;5.54;66.17
23016;BME280;11674;52.428;13.584;2023-10-19T05:32:52;99838.06;;;5.52;66.25
23016;BME280;11674;52.428;13.584;2023-10-19T05:37:59;99832.03;;;5.50;66.29
23016;BME280;11674;52.428;13.584;2023-10-19T05:43:15;99842.63;;;5.43;66.31
23016;BME280;11674;52.428;13.584;2023-10-19T05:48:22;99849.59;;;5.41;66.21
23016;BME280;11674;52.428;13.584;2023-10-19T05:53:29;99866.09;;;5.46;66.16
23016;BME280;11674;52.428;13.584;2023-10-19T05:58:38;99864.19;;;5.46;66.13
23016;BME280;11674;52.428;13.584;2023-10-19T06:03:45;99874.41;;;5.46;66.26
23016;BME280;11674;52.428;13.584;2023-10-19T06:08:52;99883.75;;;5.50;66.20
23016;BME280;11674;52.428;13.584;2023-10-19T06:14:00;99887.34;;;5.50;66.33
23016;BME280;11674;52.428;13.584;2023-10-19T06:19:12;99855.16;;;5.54;66.29
23016;BME280;11674;52.428;13.584;2023-10-19T06:24:18;99852.41;;;5.54;66.33
23016;BME280;11674;52.428;13.584;2023-10-19T06:29:29;99851.97;;;5.47;66.53
23016;BME280;11674;52.428;13.584;2023-10-19T06:34:41;99846.75;;;5.46;66.74
23016;BME280;11674;52.428;13.584;2023-10-19T06:39:48;99828.44;;;5.50;66.52
23016;BME280;11674;52.428;13.584;2023-10-19T06:45:00;99804.47;;;5.45;66.54
23016;BME280;11674;52.428;13.584;2023-10-19T06:50:14;99814.19;;;5.43;66.73
23016;BME280;11674;52.428;13.584;2023-10-19T06:55:24;99802.50;;;5.46;66.78
23016;BME280;11674;52.428;13.584;2023-10-19T07:00:30;99791.03;;;5.52;66.77
23016;BME280;11674;52.428;13.584;2023-10-19T07:05:37;99793.50;;;5.54;66.82
23016;BME280;11674;52.428;13.584;2023-10-19T07:10:47;99783.16;;;5.59;66.89
23016;BME280;11674;52.428;13.584;2023-10-19T07:15:53;99785.41;;;5.57;66.85
23016;BME280;11674;52.428;13.584;2023-10-19T07:21:07;99788.59;;;5.64;66.93
23016;BME280;11674;52.428;13.584;2023-10-19T07:26:25;99768.72;;;5.62;66.73
23016;BME280;11674;52.428;13.584;2023-10-19T07:31:32;99772.31;;;5.63;66.81
23016;BME280;11674;52.428;13.584;2023-10-19T07:36:40;99773.66;;;5.65;66.97
23016;BME280;11674;52.428;13.584;2023-10-19T07:41:46;99776.81;;;5.72;66.92
23016;BME280;11674;52.428;13.584;2023-10-19T07:46:53;99781.97;;;5.79;67.08
23016;BME280;11674;52.428;13.584;2023-10-19T07:52:00;99784.84;;;5.87;67.06
23016;BME280;11674;52.428;13.584;2023-10-19T07:57:10;99788.84;;;5.95;67.09
23016;BME280;11674;52.428;13.584;2023-10-19T08:02:20;99787.78;;;6.04;67.35
23016;BME280;11674;52.428;13.584;2023-10-19T08:07:28;99783.78;;;6.10;67.23
23016;BME280;11674;52.428;13.584;2023-10-19T08:12:40;99786.34;;;6.07;67.33
23016;BME280;11674;52.428;13.584;2023-10-19T08:17:49;99778.97;;;6.16;67.49
23016;BME280;11674;52.428;13.584;2023-10-19T08:22:58;99776.41;;;6.19;67.51
23016;BME280;11674;52.428;13.584;2023-10-19T08:28:06;99766.66;;;6.22;67.33
23016;BME280;11674;52.428;13.584;2023-10-19T08:33:21;99768.50;;;6.26;67.66
23016;BME280;11674;52.428;13.584;2023-10-19T08:38:34;99747.44;;;6.39;67.38
23016;BME280;11674;52.428;13.584;2023-10-19T08:43:43;99742.31;;;6.46;67.58
23016;BME280;11674;52.428;13.584;2023-10-19T08:48:56;99723.16;;;6.58;67.50
23016;BME280;11674;52.428;13.584;2023-10-19T08:54:07;99721.31;;;6.67;67.32
23016;BME280;11674;52.428;13.584;2023-10-19T08:59:19;99721.66;;;6.74;67.56
23016;BME280;11674;52.428;13.584;2023-10-19T09:04:30;99728.09;;;6.83;67.56
23016;BME280;11674;52.428;13.584;2023-10-19T09:09:36;99715.94;;;6.92;67.64
23016;BME280;11674;52.428;13.584;2023-10-19T09:14:43;99709.66;;;7.00;67.62
23016;BME280;11674;52.428;13.584;2023-10-19T09:19:50;99712.28;;;7.05;67.34
23016;BME280;11674;52.428;13.584;2023-10-19T09:24:57;99699.09;;;7.11;67.69
23016;BME280;11674;52.428;13.584;2023-10-19T09:30:08;99708.72;;;7.13;67.57
23016;BME280;11674;52.428;13.584;2023-10-19T09:35:26;99693.28;;;7.21;67.46
23016;BME280;11674;52.428;13.584;2023-10-19T09:40:33;99694.56;;;7.15;67.71
23016;BME280;11674;52.428;13.584;2023-10-19T09:45:45;99693.44;;;7.24;67.71
23016;BME280;11674;52.428;13.584;2023-10-19T09:50:56;99687.94;;;7.33;67.62
23016;BME280;11674;52.428;13.584;2023-10-19T09:56:03;99688.63;;;7.38;67.43
23016;BME280;11674;52.428;13.584;2023-10-19T10:01:12;99688.91;;;7.28;67.66
23016;BME280;11674;52.428;13.584;2023-10-19T10:12:22;99675.50;;;7.22;67.75
23016;BME280;11674;52.428;13.584;2023-10-19T10:17:33;99687.72;;;7.21;67.56
23016;BME280;11674;52.428;13.584;2023-10-19T10:22:44;99682.69;;;7.23;67.46
23016;BME280;11674;52.428;13.584;2023-10-19T10:27:51;99692.25;;;7.17;67.72
23016;BME280;11674;52.428;13.584;2023-10-19T10:33:02;99673.81;;;7.12;67.70
23016;BME280;11674;52.428;13.584;2023-10-19T10:38:13;99657.50;;;7.11;68.06
23016;BME280;11674;52.428;13.584;2023-10-19T10:43:22;99650.34;;;7.18;67.86
23016;BME280;11674;52.428;13.584;2023-10-19T10:48:29;99656.06;;;7.22;67.82
23016;BME280;11674;52.428;13.584;2023-10-19T10:53:40;99655.41;;;7.16;67.52
23016;BME280;11674;52.428;13.584;2023-10-19T10:58:48;99655.78;;;6.93;67.65
23016;BME280;11674;52.428;13.584;2023-10-19T11:04:10;99640.94;;;6.67;67.69
23016;BME280;11674;52.428;13.584;2023-10-19T11:09:17;99639.69;;;6.51;67.61
23016;BME280;11674;52.428;13.584;2023-10-19T11:14:24;99632.84;;;6.35;67.81
23016;BME280;11674;52.428;13.584;2023-10-19T11:19:38;99647.44;;;6.27;67.93
23016;BME280;11674;52.428;13.584;2023-10-19T11:24:47;99631.56;;;6.19;67.97
23016;BME280;11674;52.428;13.584;2023-10-19T11:29:58;99620.00;;;6.17;68.27
23016;BME280;11674;52.428;13.584;2023-10-19T11:35:06;99605.03;;;6.18;68.13
23016;BME280;11674;52.428;13.584;2023-10-19T11:40:17;99602.75;;;6.20;68.37
23016;BME280;11674;52.428;13.584;2023-10-19T11:45:24;99595.03;;;6.30;68.42
23016;BME280;11674;52.428;13.584;2023-10-19T11:50:30;99593.44;;;6.38;68.61
23016;BME280;11674;52.428;13.584;2023-10-19T11:55:37;99595.16;;;6.47;68.47
23016;BME280;11674;52.428;13.584;2023-10-19T12:00:44;99594.69;;;6.45;68.77
23016;BME280;11674;52.428;13.584;2023-10-19T12:05:52;99595.78;;;6.44;69.06
23016;BME280;11674;52.428;13.584;2023-10-19T12:10:59;99586.03;;;6.47;69.25
23016;BME280;11674;52.428;13.584;2023-10-19T12:16:05;99579.72;;;6.55;69.18
23016;BME280;11674;52.428;13.584;2023-10-19T12:21:12;99585.31;;;6.63;69.29
23016;BME280;11674;52.428;13.584;2023-10-19T12:26:19;99580.97;;;6.71;69.42
23016;BME280;11674;52.428;13.584;2023-10-19T12:31:26;99569.22;;;6.74;69.42
23016;BME280;11674;52.428;13.584;2023-10-19T12:36:34;99570.88;;;6.75;69.55
23016;BME280;11674;52.428;13.584;2023-10-19T12:41:41;99573.28;;;6.68;69.57
23016;BME280;11674;52.428;13.584;2023-10-19T12:46:51;99570.81;;;6.66;69.59
23016;BME280;11674;52.428;13.584;2023-10-19T12:51:57;99568.56;;;6.68;69.84
23016;BME280;11674;52.428;13.584;2023-10-19T12:57:04;99564.81;;;6.73;69.75
23016;BME280;11674;52.428;13.584;2023-10-19T13:02:11;99565.78;;;6.68;70.20
23016;BME280;11674;52.428;13.584;2023-10-19T13:07:18;99571.81;;;6.70;70.16
23016;BME280;11674;52.428;13.584;2023-10-19T13:12:25;99577.69;;;6.69;70.23
23016;BME280;11674;52.428;13.584;2023-10-19T13:17:32;99573.94;;;6.65;70.25
23016;BME280;11674;52.428;13.584;2023-10-19T13:22:42;99580.41;;;6.60;70.32
23016;BME280;11674;52.428;13.584;2023-10-19T13:27:48;99572.91;;;6.61;70.53
23016;BME280;11674;52.428;13.584;2023-10-19T13:32:55;99561.84;;;6.61;70.45
23016;BME280;11674;52.428;13.584;2023-10-19T13:38:06;99556.28;;;6.61;70.61
23016;BME280;11674;52.428;13.584;2023-10-19T13:43:13;99551.91;;;6.60;70.51
23016;BME280;11674;52.428;13.584;2023-10-19T13:48:26;99544.91;;;6.62;70.87
23016;BME280;11674;52.428;13.584;2023-10-19T13:53:32;99552.56;;;6.65;70.88
23016;BME280;11674;52.428;13.584;2023-10-19T13:58:42;99557.31;;;6.65;70.92
23016;BME280;11674;52.428;13.584;2023-10-19T14:03:51;99554.84;;;6.63;70.91
23016;BME280;11674;52.428;13.584;2023-10-19T14:09:02;99548.16;;;6.64;71.22
23016;BME280;11674;52.428;13.584;2023-10-19T14:14:10;99553.22;;;6.62;71.32
23016;BME280;11674;52.428;13.584;2023-10-19T14:19:16;99552.72;;;6.69;71.25
23016;BME280;11674;52.428;13.584;2023-10-19T14:24:23;99541.66;;;6.69;71.28
23016;BME280;11674;52.428;13.584;2023-10-19T14:29:30;99541.47;;;6.65;71.28
23016;BME280;11674;52.428;13.584;2023-10-19T14:34:37;99538.03;;;6.60;71.43
23016;BME280;11674;52.428;13.584;2023-10-19T14:39:44;99522.56;;;6.59;71.43
23016;BME280;11674;52.428;13.584;2023-10-19T14:44:54;99521.72;;;6.58;71.55
23016;BME280;11674;52.428;13.584;2023-10-19T14:50:00;99534.44;;;6.59;71.63
23016;BME280;11674;52.428;13.584;2023-10-19T14:55:08;99535.88;;;6.57;71.66
23016;BME280;11674;52.428;13.584;2023-10-19T15:00:17;99520.41;;;6.56;71.65
23016;BME280;11674;52.428;13.584;2023-10-19T15:05:26;99510.47;;;6.55;71.87
23016;BME280;11674;52.428;13.584;2023-10-19T15:10:41;99517.16;;;6.54;71.98
23016;BME280;11674;52.428;13.584;2023-10-19T15:15:51;99530.47;;;6.52;71.98
23016;BME280;11674;52.428;13.584;2023-10-19T15:21:06;99527.72;;;6.52;72.01
23016;BME280;11674;52.428;13.584;2023-10-19T15:26:16;99524.75;;;6.48;72.17
23016;BME280;11674;52.428;13.584;2023-10-19T15:31:26;99530.13;;;6.45;72.17
23016;BME280;11674;52.428;13.584;2023-10-19T15:36:37;99528.03;;;6.50;72.08
23016;BME280;11674;52.428;13.584;2023-10-19T15:41:44;99523.13;;;6.47;72.22
23016;BME280;11674;52.428;13.584;2023-10-19T15:46:56;99516.28;;;6.45;72.25
23016;BME280;11674;52.428;13.584;2023-10-19T15:52:10;99512.47;;;6.41;72.35
23016;BME280;11674;52.428;13.584;2023-10-19T15:57:20;99516.38;;;6.40;72.43
23016;BME280;11674;52.428;13.584;2023-10-19T16:02:32;99512.78;;;6.39;72.66
23016;BME280;11674;52.428;13.584;2023-10-19T16:07:43;99515.53;;;6.39;72.49
23016;BME280;11674;52.428;13.584;2023-10-19T16:12:49;99508.06;;;6.40;72.52
23016;BME280;11674;52.428;13.584;2023-10-19T16:17:59;99510.00;;;6.39;72.76
23016;BME280;11674;52.428;13.584;2023-10-19T16:23:07;99517.22;;;6.40;72.68
23016;BME280;11674;52.428;13.584;2023-10-19T16:28:16;99512.47;;;6.41;72.63
23016;BME280;11674;52.428;13.584;2023-10-19T16:33:23;99514.56;;;6.35;72.92
23016;BME280;11674;52.428;13.584;2023-10-19T16:38:33;99504.81;;;6.38;73.06
23016;BME280;11674;52.428;13.584;2023-10-19T16:43:39;99501.22;;;6.37;73.06
23016;BME280;11674;52.428;13.584;2023-10-19T16:48:52;99506.44;;;6.39;73.24
23016;BME280;11674;52.428;13.584;2023-10-19T16:54:01;99507.75;;;6.41;73.16
23016;BME280;11674;52.428;13.584;2023-10-19T16:59:13;99496.66;;;6.41;73.20
23016;BME280;11674;52.428;13.584;2023-10-19T17:04:22;99500.78;;;6.44;73.23
23016;BME280;11674;52.428;13.584;2023-10-19T17:09:29;99495.34;;;6.39;73.45
23016;BME280;11674;52.428;13.584;2023-10-19T17:14:38;99500.25;;;6.42;73.41
23016;BME280;11674;52.428;13.584;2023-10-19T17:19:46;99490.31;;;6.41;73.38
23016;BME280;11674;52.428;13.584;2023-10-19T17:24:52;99488.38;;;6.41;73.41
23016;BME280;11674;52.428;13.584;2023-10-19T17:30:00;99489.50;;;6.40;73.51
23016;BME280;11674;52.428;13.584;2023-10-19T17:35:10;99489.16;;;6.42;73.63
23016;BME280;11674;52.428;13.584;2023-10-19T17:40:17;99495.91;;;6.49;73.64
23016;BME280;11674;52.428;13.584;2023-10-19T17:45:24;99485.53;;;6.55;73.67
23016;BME280;11674;52.428;13.584;2023-10-19T17:50:33;99473.94;;;6.53;73.69
23016;BME280;11674;52.428;13.584;2023-10-19T17:55:40;99465.00;;;6.56;73.84
23016;BME280;11674;52.428;13.584;2023-10-19T18:00:49;99471.16;;;6.53;73.86
23016;BME280;11674;52.428;13.584;2023-10-19T18:05:57;99458.44;;;6.52;74.02
23016;BME280;11674;52.428;13.584;2023-10-19T18:11:04;99456.34;;;6.49;74.14
23016;BME280;11674;52.428;13.584;2023-10-19T18:16:13;99445.56;;;6.47;74.10
23016;BME280;11674;52.428;13.584;2023-10-19T18:21:20;99442.47;;;6.49;73.98
23016;BME280;11674;52.428;13.584;2023-10-19T18:26:27;99436.94;;;6.49;74.04
23016;BME280;11674;52.428;13.584;2023-10-19T18:31:34;99447.19;;;6.48;74.23
23016;BME280;11674;52.428;13.584;2023-10-19T18:36:41;99460.91;;;6.53;74.33
23016;BME280;11674;52.428;13.584;2023-10-19T18:41:48;99448.38;;;6.56;74.26
23016;BME280;11674;52.428;13.584;2023-10-19T18:46:56;99444.13;;;6.58;74.27
23016;BME280;11674;52.428;13.584;2023-10-19T18:52:03;99447.75;;;6.59;74.45
23016;BME280;11674;52.428;13.584;2023-10-19T18:57:11;99441.53;;;6.62;74.31
23016;BME280;11674;52.428;13.584;2023-10-19T19:02:18;99445.13;;;6.62;74.54
23016;BME280;11674;52.428;13.584;2023-10-19T19:07:25;99444.81;;;6.64;74.53
23016;BME280;11674;52.428;13.584;2023-10-19T19:12:35;99446.28;;;6.61;74.57
23016;BME280;11674;52.428;13.584;2023-10-19T19:17:42;99439.91;;;6.61;74.52
23016;BME280;11674;52.428;13.584;2023-10-19T19:22:49;99443.50;;;6.61;74.72
23016;BME280;11674;52.428;13.584;2023-10-19T19:27:56;99454.59;;;6.61;74.46
23016;BME280;11674;52.428;13.584;2023-10-19T19:33:03;99444.63;;;6.60;74.74
23016;BME280;11674;52.428;13.584;2023-10-19T19:38:11;99453.28;;;6.59;74.86
23016;BME280;11674;52.428;13.584;2023-10-19T19:43:18;99439.75;;;6.57;74.97
23016;BME280;11674;52.428;13.584;2023-10-19T19:48:26;99441.19;;;6.55;75.00
23016;BME280;11674;52.428;13.584;2023-10-19T19:53:33;99440.53;;;6.58;75.21
23016;BME280;11674;52.428;13.584;2023-10-19T19:58:42;99442.81;;;6.56;75.42
23016;BME280;11674;52.428;13.584;2023-10-19T20:03:49;99421.50;;;6.56;75.30
23016;BME280;11674;52.428;13.584;2023-10-19T20:08:56;99427.03;;;6.56;75.62
23016;BME280;11674;52.428;13.584;2023-10-19T20:14:03;99425.50;;;6.50;75.65
23016;BME280;11674;52.428;13.584;2023-10-19T20:19:10;99424.72;;;6.50;75.90
23016;BME280;11674;52.428;13.584;2023-10-19T20:24:17;99422.75;;;6.50;76.04
23016;BME280;11674;52.428;13.584;2023-10-19T20:29:24;99421.13;;;6.49;75.93
23016;BME280;11674;52.428;13.584;2023-10-19T20:34:33;99426.34;;;6.51;76.10
23016;BME280;11674;52.428;13.584;2023-10-19T20:39:40;99413.31;;;6.51;76.27
23016;BME280;11674;52.428;13.584;2023-10-19T20:44:47;99414.13;;;6.52;76.29
23016;BME280;11674;52.428;13.584;2023-10-19T20:50:01;99421.28;;;6.53;76.30
23016;BME280;11674;52.428;13.584;2023-10-19T20:55:10;99412.03;;;6.57;76.26
23016;BME280;11674;52.428;13.584;2023-10-19T21:00:17;99412.19;;;6.61;76.54
23016;BME280;11674;52.428;13.584;2023-10-19T21:05:24;99398.50;;;6.64;76.46
23016;BME280;11674;52.428;13.584;2023-10-19T21:10:32;99395.09;;;6.59;76.46
23016;BME280;11674;52.428;13.584;2023-10-19T21:15:39;99389.34;;;6.55;76.66
23016;BME280;11674;52.428;13.584;2023-10-19T21:20:46;99378.63;;;6.54;76.83
23016;BME280;11674;52.428;13.584;2023-10-19T21:25:53;99380.69;;;6.48;76.66
23016;BME280;11674;52.428;13.584;2023-10-19T21:31:00;99366.97;;;6.43;76.73
23016;BME280;11674;52.428;13.584;2023-10-19T21:36:11;99357.84;;;6.43;76.97
23016;BME280;11674;52.428;13.584;2023-10-19T21:41:21;99358.50;;;6.40;76.97
23016;BME280;11674;52.428;13.584;2023-10-19T21:46:28;99361.25;;;6.40;77.02
23016;BME280;11674;52.428;13.584;2023-10-19T21:51:35;99353.91;;;6.35;76.98
23016;BME280;11674;52.428;13.584;2023-10-19T21:56:47;99363.53;;;6.29;77.09
23016;BME280;11674;52.428;13.584;2023-10-19T22:01:54;99355.34;;;6.24;76.97
23016;BME280;11674;52.428;13.584;2023-10-19T22:07:01;99358.25;;;6.19;77.14
23016;BME280;11674;52.428;13.584;2023-10-19T22:12:08;99346.50;;;6.14;77.43
23016;BME280;11674;52.428;13.584;2023-10-19T22:17:24;99359.84;;;6.12;78.26
23016;BME280;11674;52.428;13.584;2023-10-19T22:22:34;99351.03;;;6.10;78.61
23016;BME280;11674;52.428;13.584;2023-10-19T22:27:44;99364.09;;;6.09;79.31
23016;BME280;11674;52.428;13.584;2023-10-19T22:32:53;99361.63;;;6.08;79.69
23016;BME280;11674;52.428;13.584;2023-10-19T22:38:00;99354.94;;;6.09;80.02
23016;BME280;11674;52.428;13.584;2023-10-19T22:43:09;99357.53;;;6.05;80.32
23016;BME280;11674;52.428;13.584;2023-10-19T22:48:20;99346.78;;;6.04;80.43
23016;BME280;11674;52.428;13.584;2023-10-19T22:53:29;99332.47;;;6.02;80.98
23016;BME280;11674;52.428;13.584;2023-10-19T22:58:37;99337.81;;;5.98;80.92
23016;BME280;11674;52.428;13.584;2023-10-19T23:03:49;99325.59;;;5.99;81.30
23016;BME280;11674;52.428;13.584;2023-10-19T23:08:57;99324.28;;;5.97;81.44
23016;BME280;11674;52.428;13.584;2023-10-19T23:14:11;99307.19;;;5.95;81.65
23016;BME280;11674;52.428;13.584;2023-10-19T23:19:20;99295.28;;;5.94;81.72
23016;BME280;11674;52.428;13.584;2023-10-19T23:24:29;99275.09;;;5.94;81.98
23016;BME280;11674;52.428;13.584;2023-10-19T23:29:45;99294.16;;;5.95;81.87
23016;BME280;11674;52.428;13.584;2023-10-19T23:34:54;99309.31;;;5.98;82.10
23016;BME280;11674;52.428;13.584;2023-10-19T23:40:03;99322.53;;;6.01;82.23
23016;BME280;11674;52.428;13.584;2023-10-19T23:45:14;99336.38;;;6.01;82.31
23016;BME280;11674;52.428;13.584;2023-10-19T23:50:22;99345.16;;;6.03;82.40
23016;BME280;11674;52.428;13.584;2023-10-19T23:55:32;99295.13;;;5.91;82.93
